map of GUY home
GUY - Airport
Location
City:  Guymon, Oklahoma, United States
Name:Guymon Municipal Airport
ICAO:KGUY
IATA:GUY
FAA LID:GUY

Details
Type:Airport (Airfield)
Use:Public/Civil
Latitude:3641'03"N (36.684155)
Longitude:10130'25"W (-101.506968)
Datum:WGS 1984
Elevation:3125 ft (953 m)
Variation:6.01E (WMM2015 magnetic declination)
-0.10 annual change
Runways:2
Longest:5904 × 100 ft (1800 × 30.5 m), paved

Time
Time Zone:UTC-6 (DST-5)
Local Time:

Weather
METAR:KGUY 210153Z AUTO 19003KT 10SM CLR 06/M02 A2996 RMK AO2 SLP152 T00561022
TAF:KGUY 210520Z 2106/2206 VRB06KT P6SM OVC250
FM211700 21018G26KT P6SM BKN250
FM220100 20015KT P6SM SCT250

Related Locations
Nearby:
Farthest:RRG: 10953 mi / 17628 km
Plaine Corail [Sir Gatan Duval Airport (Plaine Corail Airport)], Rodrigues Island, MU

Find:

   beyond  
but within

Other Information
Maps:
NOTAMs:
Links:
Sources:

  
  • flag of United States
  • flag of Oklahoma
  

Sectional Chart

Flight Planning
at skyvector.com

Satellite Image

Google Maps Satellite view

 

Copyright © 2004-2019 Karl L. Swartz. All rights reserved.
The Great Circle Mapper name and logo are trademarks of the Great Circle Mapper.
All other trademarks mentioned herein belong to their respective owners.
Please see credits for attibutions and further copyright information.

  Follow gcmap on Facebook Follow gcmap on Twitter Follow gcmap on Google+ GCmap on LinkedIn

hCard Microformat

Geo Microformat